createdAt,value
2018-12-08T00:01:55.002Z,51.24
2018-12-08T00:04:23.322Z,50.14
2018-12-08T00:06:51.660Z,51.67
2018-12-08T00:09:20.006Z,52.88
2018-12-08T00:11:48.421Z,50.76
2018-12-08T00:14:16.758Z,51.55
2018-12-08T00:16:45.083Z,50.82
2018-12-08T00:19:13.442Z,51.24
2018-12-08T00:21:41.806Z,54.13
2018-12-08T00:24:10.247Z,54.26
2018-12-08T00:26:38.586Z,54.52
2018-12-08T00:29:07.046Z,55.22
2018-12-08T00:31:46.002Z,53.52
2018-12-08T00:34:14.564Z,54.18
2018-12-08T00:36:43.370Z,54.31
2018-12-08T00:39:11.941Z,52.85
2018-12-08T00:41:40.308Z,52.78
2018-12-08T00:44:08.766Z,52.87
2018-12-08T00:46:37.094Z,53.16
2018-12-08T00:49:05.456Z,49.77
2018-12-08T00:51:33.922Z,50.42
2018-12-08T00:54:07.318Z,51.41
2018-12-08T00:56:36.579Z,50.79
2018-12-08T00:59:05.138Z,50.05
2018-12-08T01:01:33.528Z,50.07
2018-12-08T01:04:01.794Z,49.19
2018-12-08T01:06:30.206Z,48.59
2018-12-08T01:08:58.546Z,47.77
2018-12-08T01:11:26.873Z,48.82
2018-12-08T01:13:55.252Z,47.40
2018-12-08T01:16:23.679Z,49.44
2018-12-08T01:18:52.369Z,47.78
2018-12-08T01:21:20.666Z,47.54
2018-12-08T01:23:49.039Z,48.65
2018-12-08T01:26:17.328Z,47.65
2018-12-08T01:28:45.829Z,46.00
2018-12-08T01:31:14.090Z,47.63
2018-12-08T01:33:42.435Z,45.83
2018-12-08T01:36:11.088Z,46.03
2018-12-08T01:38:39.382Z,45.44
2018-12-08T01:41:07.708Z,45.73
2018-12-08T01:43:36.037Z,44.59
2018-12-08T01:46:04.350Z,45.19
2018-12-08T01:48:32.626Z,46.33
2018-12-08T01:51:01.074Z,44.51
2018-12-08T01:53:29.541Z,45.20
2018-12-08T01:55:58.145Z,45.07
2018-12-08T01:58:26.445Z,45.27
2018-12-08T02:00:54.778Z,44.68
2018-12-08T02:03:23.101Z,44.53
2018-12-08T02:05:51.448Z,44.74
2018-12-08T02:08:19.825Z,44.77
2018-12-08T02:10:49.330Z,42.08
2018-12-08T02:13:17.756Z,44.35
2018-12-08T02:15:46.071Z,44.93
2018-12-08T02:18:14.401Z,43.42
2018-12-08T02:23:33.300Z,44.07
2018-12-08T02:26:01.772Z,42.05
2018-12-08T02:28:30.090Z,41.07
2018-12-08T02:30:58.406Z,40.94
2018-12-08T02:33:26.735Z,42.62
2018-12-08T02:35:55.037Z,41.75
2018-12-08T02:38:23.329Z,42.27
2018-12-08T02:40:51.838Z,42.97
2018-12-08T02:43:20.374Z,42.23
2018-12-08T02:45:48.866Z,44.88
2018-12-08T02:48:17.264Z,46.44
2018-12-08T02:50:45.568Z,46.84
2018-12-08T02:53:13.882Z,47.27
2018-12-08T02:55:42.265Z,48.57
2018-12-08T02:58:10.637Z,49.56
2018-12-08T03:00:39.074Z,49.84
2018-12-08T03:03:07.433Z,49.28
2018-12-08T03:05:35.807Z,49.27
2018-12-08T03:08:04.655Z,50.74
2018-12-08T03:10:32.928Z,50.48
2018-12-08T03:13:01.378Z,50.96
2018-12-08T03:15:30.777Z,50.97
2018-12-08T03:17:59.141Z,49.47
2018-12-08T03:20:27.476Z,50.48
2018-12-08T03:22:56.053Z,49.91
2018-12-08T03:25:24.441Z,50.55
2018-12-08T03:27:52.839Z,49.87
2018-12-08T03:30:21.238Z,51.13
2018-12-08T03:32:49.637Z,50.68
2018-12-08T03:35:18.048Z,50.53
2018-12-08T03:37:46.376Z,51.20
2018-12-08T03:40:14.769Z,50.37
2018-12-08T03:42:43.299Z,50.65
2018-12-08T03:45:11.841Z,50.72
2018-12-08T03:47:40.157Z,50.84
2018-12-08T03:50:08.561Z,51.94
2018-12-08T03:52:36.834Z,51.43
2018-12-08T03:55:05.341Z,51.51
2018-12-08T03:57:33.652Z,50.45
2018-12-08T04:00:02.156Z,50.32
2018-12-08T04:02:30.426Z,50.70
2018-12-08T04:04:58.980Z,49.90
2018-12-08T04:07:27.285Z,50.91
2018-12-08T04:09:55.781Z,50.26
2018-12-08T04:12:24.444Z,49.60
2018-12-08T04:14:52.927Z,49.40
2018-12-08T04:17:21.351Z,51.18
2018-12-08T04:19:49.653Z,50.65
2018-12-08T04:22:18.116Z,49.01
2018-12-08T04:24:46.458Z,50.57
2018-12-08T04:27:14.921Z,49.38
2018-12-08T04:29:43.318Z,49.11
2018-12-08T04:32:11.856Z,48.04
2018-12-08T04:34:40.877Z,48.01
2018-12-08T04:37:09.269Z,46.34
2018-12-08T04:39:37.694Z,47.88
2018-12-08T04:42:06.038Z,51.44
2018-12-08T04:44:34.595Z,50.13
2018-12-08T04:47:03.079Z,49.24
2018-12-08T04:49:31.459Z,49.79
2018-12-08T04:51:59.726Z,50.44
2018-12-08T04:54:28.125Z,48.82
2018-12-08T04:56:56.598Z,50.06
2018-12-08T04:59:24.891Z,49.79
2018-12-08T05:01:53.272Z,49.94
2018-12-08T05:04:21.675Z,50.77
2018-12-08T05:06:49.971Z,50.46
2018-12-08T05:09:18.281Z,47.13
2018-12-08T05:11:46.595Z,51.69
2018-12-08T05:14:15.322Z,51.44
2018-12-08T05:16:43.602Z,50.73
2018-12-08T05:19:11.885Z,50.94
2018-12-08T05:21:40.209Z,51.00
2018-12-08T05:24:08.639Z,49.65
2018-12-08T05:26:37.052Z,47.37
2018-12-08T05:29:05.416Z,52.17
2018-12-08T05:31:33.799Z,49.41
2018-12-08T05:34:02.322Z,50.06
2018-12-08T05:36:30.596Z,51.94
2018-12-08T05:38:58.900Z,51.95
2018-12-08T05:41:27.350Z,52.83
2018-12-08T05:43:55.798Z,50.03
2018-12-08T05:46:24.232Z,50.84
2018-12-08T05:48:52.750Z,50.28
2018-12-08T05:51:21.246Z,49.17
2018-12-08T05:53:49.532Z,49.62
2018-12-08T05:56:17.831Z,50.11
2018-12-08T05:58:46.264Z,49.67
2018-12-08T06:01:14.802Z,50.68
2018-12-08T06:03:43.090Z,50.98
2018-12-08T06:06:11.408Z,49.32
2018-12-08T06:08:39.705Z,50.07
2018-12-08T06:11:08.042Z,49.05
2018-12-08T06:13:36.458Z,50.48
2018-12-08T06:16:05.027Z,49.30
2018-12-08T06:18:33.358Z,49.71
2018-12-08T06:21:01.638Z,47.56
2018-12-08T06:23:29.976Z,50.42
2018-12-08T06:26:00.590Z,49.69
2018-12-08T06:28:33.074Z,49.03
2018-12-08T06:31:01.390Z,50.93
2018-12-08T06:33:29.746Z,50.36
2018-12-08T06:35:58.117Z,50.54
2018-12-08T06:38:26.687Z,50.51
2018-12-08T06:40:54.971Z,50.85
2018-12-08T06:43:23.369Z,47.68
2018-12-08T06:45:51.801Z,49.83
2018-12-08T06:48:20.154Z,48.89
2018-12-08T06:50:48.583Z,49.71
2018-12-08T06:53:16.893Z,49.63
2018-12-08T06:55:45.269Z,49.27
2018-12-08T06:58:13.741Z,49.21
2018-12-08T07:00:42.169Z,48.03
2018-12-08T07:03:10.475Z,49.65
2018-12-08T07:05:39.276Z,50.12
2018-12-08T07:08:07.694Z,47.67
2018-12-08T07:10:36.025Z,48.13
2018-12-08T07:13:04.538Z,48.96
2018-12-08T07:15:32.934Z,49.32
2018-12-08T07:18:01.351Z,47.28
2018-12-08T07:20:29.688Z,47.90
2018-12-08T07:22:58.057Z,49.06
2018-12-08T07:25:26.389Z,46.61
2018-12-08T07:27:54.785Z,48.85
2018-12-08T07:30:23.352Z,47.22
2018-12-08T07:32:51.728Z,49.34
2018-12-08T07:35:20.216Z,48.58
2018-12-08T07:37:48.501Z,47.43
2018-12-08T07:40:16.926Z,46.80
2018-12-08T07:42:45.807Z,47.62
2018-12-08T07:45:15.267Z,49.72
2018-12-08T07:47:43.912Z,48.48
2018-12-08T07:50:12.264Z,49.32
2018-12-08T07:52:40.668Z,48.73
2018-12-08T07:55:09.209Z,49.18
2018-12-08T07:57:37.929Z,48.55
2018-12-08T08:00:11.283Z,48.33
2018-12-08T08:02:39.654Z,48.13
2018-12-08T08:05:08.927Z,48.82
2018-12-08T08:07:37.617Z,49.82
2018-12-08T08:10:09.086Z,51.38
2018-12-08T08:12:38.357Z,48.27
2018-12-08T08:15:09.329Z,50.28
2018-12-08T08:17:38.591Z,49.08
2018-12-08T08:20:09.491Z,49.57
2018-12-08T08:22:37.945Z,50.88
2018-12-08T08:25:08.355Z,49.97
2018-12-08T08:27:36.953Z,48.92
2018-12-08T08:30:07.622Z,50.19
2018-12-08T08:32:35.898Z,49.33
2018-12-08T08:35:05.196Z,49.19
2018-12-08T08:37:34.517Z,49.30
2018-12-08T08:40:02.983Z,49.01
2018-12-08T08:42:31.464Z,48.77
2018-12-08T08:44:59.883Z,46.45
2018-12-08T08:47:28.284Z,48.69
2018-12-08T08:49:56.675Z,49.14
2018-12-08T08:52:26.919Z,49.17
2018-12-08T08:54:55.362Z,50.29
2018-12-08T08:57:23.756Z,49.22
2018-12-08T08:59:55.181Z,49.94
2018-12-08T09:02:23.744Z,47.23
2018-12-08T09:04:52.170Z,49.50
2018-12-08T09:07:21.211Z,49.31
2018-12-08T09:09:49.600Z,47.56
2018-12-08T09:12:17.974Z,48.87
2018-12-08T09:14:46.222Z,48.29
2018-12-08T09:17:14.668Z,48.25
2018-12-08T09:19:42.935Z,49.55
2018-12-08T09:22:11.343Z,48.47
2018-12-08T09:24:39.720Z,48.19
2018-12-08T09:27:08.160Z,48.54
2018-12-08T09:29:37.105Z,48.07
2018-12-08T09:32:05.604Z,47.98
2018-12-08T09:34:35.598Z,48.13
2018-12-08T09:37:04.185Z,49.65
2018-12-08T09:39:33.016Z,50.08
2018-12-08T09:42:01.826Z,49.55
2018-12-08T09:44:30.236Z,49.15
2018-12-08T09:46:58.733Z,49.60
2018-12-08T09:49:27.195Z,48.95
2018-12-08T09:51:55.511Z,49.12
2018-12-08T09:54:23.910Z,49.56
2018-12-08T09:56:52.221Z,49.00
2018-12-08T09:59:20.680Z,48.23
2018-12-08T10:01:48.970Z,49.09
2018-12-08T10:04:17.292Z,49.17
2018-12-08T10:06:45.627Z,49.85
2018-12-08T10:09:14.145Z,49.77
2018-12-08T10:11:42.595Z,48.13
2018-12-08T10:14:11.262Z,48.29
2018-12-08T10:16:39.602Z,48.94
2018-12-08T10:19:07.994Z,48.94
2018-12-08T10:21:36.369Z,49.39
2018-12-08T10:24:04.775Z,49.81
2018-12-08T10:26:33.106Z,48.65
2018-12-08T10:29:01.420Z,49.75
2018-12-08T10:31:30.066Z,49.93
2018-12-08T10:33:58.433Z,50.35
2018-12-08T10:36:26.849Z,48.99
2018-12-08T10:38:55.730Z,50.17
2018-12-08T10:41:24.186Z,49.14
2018-12-08T10:43:52.513Z,49.13
2018-12-08T10:58:32.767Z,52.75
2018-12-08T11:01:11.304Z,52.87
2018-12-08T11:03:49.242Z,52.64
2018-12-08T11:06:17.675Z,51.49
2018-12-08T11:08:46.102Z,51.92
2018-12-08T11:11:14.559Z,52.07
2018-12-08T11:13:42.916Z,53.12
2018-12-08T11:16:12.509Z,51.37
2018-12-08T11:18:40.803Z,51.26
2018-12-08T11:21:09.292Z,50.14
2018-12-08T11:23:38.461Z,52.96
2018-12-08T11:26:07.029Z,52.28
2018-12-08T11:28:35.657Z,53.16
2018-12-08T11:31:04.370Z,52.76
2018-12-08T11:33:32.715Z,52.34
2018-12-08T11:36:01.074Z,52.59
2018-12-08T11:38:29.360Z,52.62
2018-12-08T11:40:57.684Z,51.73
2018-12-08T11:43:26.175Z,53.05
2018-12-08T11:45:54.572Z,53.79
2018-12-08T11:48:23.646Z,52.50
2018-12-08T11:50:51.916Z,50.77
2018-12-08T11:53:20.165Z,50.08
2018-12-08T11:55:48.444Z,49.77
2018-12-08T11:58:16.918Z,52.01
2018-12-08T12:00:45.336Z,51.78
2018-12-08T12:03:13.651Z,53.45
2018-12-08T12:05:42.158Z,52.01
2018-12-08T12:08:11.093Z,52.10
2018-12-08T12:10:39.362Z,53.11
2018-12-08T12:13:07.806Z,52.52
2018-12-08T12:15:36.213Z,52.10
2018-12-08T12:18:04.576Z,52.42
2018-12-08T12:20:33.566Z,51.75
2018-12-08T12:23:02.046Z,54.11
2018-12-08T12:25:30.702Z,54.37
2018-12-08T12:27:59.342Z,54.36
2018-12-08T12:30:27.738Z,55.42
2018-12-08T12:32:56.234Z,55.75
2018-12-08T12:35:24.913Z,53.57
2018-12-08T12:37:53.249Z,54.21
2018-12-08T12:40:21.553Z,55.38
2018-12-08T12:42:49.847Z,53.60
2018-12-08T12:45:18.327Z,49.64
2018-12-08T12:47:46.831Z,48.15
2018-12-08T12:50:15.106Z,48.53
2018-12-08T12:52:43.428Z,47.66
2018-12-08T12:55:11.790Z,48.46
2018-12-08T12:57:40.082Z,47.99
2018-12-08T13:00:11.999Z,48.42
2018-12-08T13:02:40.600Z,49.93
2018-12-08T13:05:09.104Z,51.35
2018-12-08T13:07:37.470Z,51.17
2018-12-08T13:10:06.167Z,49.85
2018-12-08T13:12:34.649Z,49.66
2018-12-08T13:15:03.031Z,50.86
2018-12-08T13:17:31.509Z,51.40
2018-12-08T13:20:00.119Z,50.93
2018-12-08T13:22:28.428Z,51.43
2018-12-08T13:25:06.748Z,53.04
2018-12-08T13:27:35.489Z,51.98
2018-12-08T13:30:04.964Z,51.12
2018-12-08T13:32:33.342Z,52.58
2018-12-08T13:35:02.339Z,51.78
2018-12-08T13:37:30.821Z,54.57
2018-12-08T13:39:59.240Z,56.33
2018-12-08T13:42:27.699Z,57.29
2018-12-08T13:45:18.365Z,58.53
2018-12-08T13:47:46.702Z,59.32
2018-12-08T13:50:15.082Z,60.10
2018-12-08T13:52:43.437Z,58.26
2018-12-08T13:55:11.869Z,59.52
2018-12-08T13:57:44.745Z,60.79
2018-12-08T14:00:13.347Z,59.68
2018-12-08T14:02:41.677Z,58.60
2018-12-08T14:05:10.342Z,57.87
2018-12-08T14:07:38.720Z,60.68
2018-12-08T14:10:08.086Z,59.58
2018-12-08T14:12:37.135Z,59.99
2018-12-08T14:15:05.615Z,58.91
2018-12-08T14:17:34.017Z,60.79
2018-12-08T14:20:35.779Z,59.89
2018-12-08T14:23:04.171Z,58.30
2018-12-08T14:25:32.494Z,59.21
2018-12-08T14:28:01.178Z,58.84
2018-12-08T14:30:29.452Z,58.93
2018-12-08T14:32:57.839Z,59.90
2018-12-08T14:35:26.440Z,57.56
2018-12-08T14:37:54.878Z,58.99
2018-12-08T14:40:23.253Z,57.81
2018-12-08T14:42:51.521Z,57.62
2018-12-08T14:45:19.929Z,58.07
2018-12-08T14:47:48.191Z,57.86
2018-12-08T14:50:16.549Z,58.06
2018-12-08T14:52:44.902Z,58.19
2018-12-08T14:55:13.429Z,58.50
2018-12-08T14:57:41.819Z,57.19
2018-12-08T15:00:12.653Z,58.82
2018-12-08T15:02:41.029Z,58.71
2018-12-08T15:05:10.859Z,59.49
2018-12-08T15:07:39.292Z,57.21
2018-12-08T15:10:11.701Z,58.24
2018-12-08T15:12:40.034Z,55.69
2018-12-08T15:15:09.903Z,57.61
2018-12-08T15:17:38.274Z,57.23
2018-12-08T15:20:08.444Z,56.99
2018-12-08T15:22:37.003Z,55.95
2018-12-08T15:25:07.529Z,56.18
2018-12-08T15:27:35.874Z,56.36
2018-12-08T15:30:04.815Z,57.45
2018-12-08T15:32:33.110Z,56.11
2018-12-08T15:35:01.443Z,55.65
2018-12-08T15:37:29.919Z,54.94
2018-12-08T15:39:58.776Z,55.02
2018-12-08T15:42:27.211Z,55.92
2018-12-08T15:44:55.685Z,55.22
2018-12-08T15:47:23.971Z,54.26
2018-12-08T15:49:52.437Z,55.58
2018-12-08T15:52:20.721Z,54.96
2018-12-08T15:54:49.190Z,54.44
2018-12-08T15:57:17.554Z,53.15
2018-12-08T15:59:46.060Z,55.38
2018-12-08T16:02:14.425Z,54.87
2018-12-08T16:04:42.967Z,55.06
2018-12-08T16:07:11.422Z,55.32
2018-12-08T16:09:39.818Z,55.30
2018-12-08T16:12:08.266Z,53.48
2018-12-08T16:14:36.714Z,54.25
2018-12-08T16:17:05.279Z,54.20
2018-12-08T16:19:34.605Z,55.81
2018-12-08T16:22:02.971Z,55.78
2018-12-08T16:24:31.353Z,53.84
2018-12-08T16:26:59.854Z,55.91
2018-12-08T16:29:28.340Z,55.22
2018-12-08T16:31:56.877Z,55.16
2018-12-08T16:34:25.128Z,54.84
2018-12-08T16:36:53.616Z,55.68
2018-12-08T16:39:22.037Z,57.16
2018-12-08T16:41:50.480Z,56.74
2018-12-08T16:44:19.388Z,55.80
2018-12-08T16:46:47.905Z,56.89
2018-12-08T16:49:16.208Z,55.85
2018-12-08T16:51:44.755Z,55.63
2018-12-08T16:54:13.215Z,55.67
2018-12-08T16:56:41.643Z,54.04
2018-12-08T16:59:10.068Z,54.77
2018-12-08T17:01:38.495Z,54.77
2018-12-08T17:04:06.853Z,54.85
2018-12-08T17:06:35.339Z,55.41
2018-12-08T17:09:04.284Z,55.46
2018-12-08T17:11:32.625Z,55.30
2018-12-08T17:14:00.983Z,54.26
2018-12-08T17:16:29.504Z,56.05
2018-12-08T17:18:57.844Z,55.27
2018-12-08T17:21:26.354Z,53.87
2018-12-08T17:23:54.806Z,53.16
2018-12-08T17:26:23.288Z,54.14
2018-12-08T17:28:51.798Z,53.88
2018-12-08T17:31:20.392Z,54.68
2018-12-08T17:33:48.714Z,53.11
2018-12-08T17:36:17.001Z,55.08
2018-12-08T17:38:45.317Z,54.33
2018-12-08T17:41:13.686Z,55.42
2018-12-08T17:43:42.092Z,53.96
2018-12-08T17:46:10.431Z,52.33
2018-12-08T17:48:38.852Z,53.91
2018-12-08T17:51:07.204Z,52.98
2018-12-08T17:53:35.454Z,53.46
2018-12-08T17:56:03.757Z,53.85
2018-12-08T17:58:32.129Z,53.77
2018-12-08T18:01:00.729Z,53.55
2018-12-08T18:03:29.176Z,52.36
2018-12-08T18:05:57.755Z,53.13
2018-12-08T18:08:26.453Z,53.68
2018-12-08T18:10:54.743Z,52.95
2018-12-08T18:13:23.378Z,52.38
2018-12-08T18:15:51.757Z,53.76
2018-12-08T18:18:20.158Z,53.65
2018-12-08T18:20:48.456Z,53.13
2018-12-08T18:23:16.908Z,53.24
2018-12-08T18:25:45.173Z,54.00
2018-12-08T18:28:13.655Z,53.50
2018-12-08T18:30:42.426Z,53.77
2018-12-08T18:33:10.732Z,54.32
2018-12-08T18:35:39.235Z,53.70
2018-12-08T18:38:07.569Z,54.30
2018-12-08T18:40:35.849Z,53.97
2018-12-08T18:43:04.379Z,53.08
2018-12-08T18:45:32.963Z,54.17
2018-12-08T18:48:01.310Z,54.42
2018-12-08T18:50:29.731Z,54.10
2018-12-08T18:52:58.094Z,53.31
2018-12-08T18:55:26.583Z,53.47
2018-12-08T18:57:55.087Z,54.29
2018-12-08T19:00:23.645Z,55.10
2018-12-08T19:02:52.049Z,54.27
2018-12-08T19:05:20.617Z,52.95
2018-12-08T19:07:49.023Z,54.97
2018-12-08T19:10:17.555Z,54.46
2018-12-08T19:12:46.806Z,53.98
2018-12-08T19:15:15.710Z,53.49
2018-12-08T19:17:44.025Z,53.86
2018-12-08T19:20:12.424Z,53.80
2018-12-08T19:22:40.883Z,55.07
2018-12-08T19:25:09.233Z,53.09
2018-12-08T19:27:37.756Z,54.34
2018-12-08T19:30:07.875Z,52.42
2018-12-08T19:32:36.201Z,52.55
2018-12-08T19:35:05.014Z,53.13
2018-12-08T19:37:33.632Z,51.41
2018-12-08T19:40:01.985Z,52.24
2018-12-08T19:42:30.375Z,53.49
2018-12-08T19:44:58.769Z,53.00
2018-12-08T19:47:27.320Z,51.92
2018-12-08T19:49:55.738Z,53.12
2018-12-08T19:52:24.020Z,51.81
2018-12-08T19:54:54.514Z,52.76
2018-12-08T19:57:22.967Z,53.17
2018-12-08T19:59:51.328Z,53.34
2018-12-08T20:02:20.056Z,52.36
2018-12-08T20:04:48.442Z,53.84
2018-12-08T20:07:16.827Z,55.26
2018-12-08T20:09:45.194Z,54.16
2018-12-08T20:12:13.585Z,53.75
2018-12-08T20:14:42.028Z,54.26
2018-12-08T20:17:10.701Z,55.73
2018-12-08T20:19:39.022Z,55.35
2018-12-08T20:22:07.415Z,56.34
2018-12-08T20:24:35.894Z,55.96
2018-12-08T20:27:04.300Z,57.75
2018-12-08T20:29:32.596Z,56.93
2018-12-08T20:32:02.068Z,57.32
2018-12-08T20:34:30.418Z,55.82
2018-12-08T20:36:58.939Z,56.06
2018-12-08T20:39:27.355Z,56.83
2018-12-08T20:41:55.858Z,57.74
2018-12-08T20:44:24.202Z,57.73
2018-12-08T20:46:52.815Z,56.51
2018-12-08T20:49:21.247Z,56.46
2018-12-08T20:51:49.868Z,57.40
2018-12-08T20:54:18.195Z,58.22
2018-12-08T20:56:46.802Z,60.61
2018-12-08T20:59:15.130Z,58.52
2018-12-08T21:01:43.695Z,58.74
2018-12-08T21:04:12.286Z,58.69
2018-12-08T21:06:40.740Z,59.51
2018-12-08T21:09:09.844Z,59.10
2018-12-08T21:11:38.426Z,58.47
2018-12-08T21:14:06.729Z,59.90
2018-12-08T21:16:34.960Z,58.18
2018-12-08T21:19:03.480Z,59.47
2018-12-08T21:21:31.768Z,59.18
2018-12-08T21:24:00.965Z,59.17
2018-12-08T21:26:30.084Z,58.42
2018-12-08T21:28:58.583Z,58.74
2018-12-08T21:31:27.079Z,58.61
2018-12-08T21:33:55.514Z,60.39
2018-12-08T21:36:24.010Z,59.65
2018-12-08T21:38:52.967Z,60.02
2018-12-08T21:41:22.110Z,59.63
2018-12-08T21:43:50.690Z,59.92
2018-12-08T21:46:19.299Z,59.61
2018-12-08T21:48:47.729Z,57.96
2018-12-08T21:51:16.144Z,57.86
2018-12-08T21:53:44.620Z,57.08
2018-12-08T21:56:13.154Z,57.81
2018-12-08T21:58:41.781Z,59.16
2018-12-08T22:01:10.131Z,61.14
2018-12-08T22:03:38.435Z,62.02
2018-12-08T22:06:06.889Z,63.39
2018-12-08T22:08:35.165Z,63.52
2018-12-08T22:11:03.531Z,63.24
2018-12-08T22:13:32.556Z,61.20
2018-12-08T22:16:00.947Z,60.73
2018-12-08T22:18:29.299Z,62.06
2018-12-08T22:20:57.793Z,62.40
2018-12-08T22:23:26.133Z,61.25
2018-12-08T22:25:54.576Z,59.56
2018-12-08T22:28:22.875Z,61.83
2018-12-08T22:30:51.166Z,61.87
2018-12-08T22:33:19.573Z,60.31
2018-12-08T22:35:48.040Z,60.85
2018-12-08T22:38:16.529Z,59.28
2018-12-08T22:40:46.788Z,58.16
2018-12-08T22:43:15.110Z,59.49
2018-12-08T22:45:43.573Z,59.65
2018-12-08T22:48:11.883Z,59.51
2018-12-08T22:50:40.137Z,58.79
2018-12-08T22:53:08.412Z,59.22
2018-12-08T22:55:37.319Z,59.66
2018-12-08T22:58:05.602Z,59.39
2018-12-08T23:00:42.402Z,58.30
2018-12-08T23:03:10.825Z,59.16
2018-12-08T23:05:39.274Z,59.53
2018-12-08T23:08:07.743Z,57.95
2018-12-08T23:10:36.095Z,59.08
2018-12-08T23:13:04.498Z,58.96
2018-12-08T23:15:33.110Z,58.53
2018-12-08T23:18:01.718Z,58.03
2018-12-08T23:20:30.031Z,58.67
2018-12-08T23:22:58.373Z,57.13
2018-12-08T23:25:26.688Z,57.73
2018-12-08T23:27:55.189Z,59.40
2018-12-08T23:30:23.535Z,58.70
2018-12-08T23:32:52.523Z,58.45
2018-12-08T23:35:20.951Z,61.76
2018-12-08T23:37:49.297Z,62.08
2018-12-08T23:40:17.972Z,62.66
2018-12-08T23:42:46.343Z,62.68
2018-12-08T23:45:14.944Z,62.62
2018-12-08T23:47:43.348Z,61.71
2018-12-08T23:50:11.616Z,61.88
2018-12-08T23:52:40.058Z,60.37
2018-12-08T23:55:08.543Z,59.70
2018-12-08T23:57:37.136Z,61.35
